Time;durP1;ratioP1;P1;durP2;ratioP2;P2;SDS_P1;SDS_P2;PMS_P1;PMS_P2;Temp;Humidity;BMP_temperature;BMP_pressure;BME280_temperature;BME280_humidity;BME280_pressure;Samples;Min_cycle;Max_cycle;Signal;HPM_P1;HPM_P2
2023/05/21 00:02:10;;;;;;;8.40;5.37;;;14.80;99.90;;;;;;5030607;28;20204;-82
2023/05/21 00:05:03;;;;;;;8.30;5.73;;;14.80;99.90;;;;;;5032534;28;20677;-80
2023/05/21 00:08:40;;;;;;;;;;;;;;;;;;;;;
2023/05/21 00:11:52;;;;;;;8.03;4.93;;;14.80;99.90;;;;;;5009804;28;20206;-80
2023/05/21 00:15:10;;;;;;;8.00;5.40;;;14.70;99.90;;;;;;4995137;28;20200;-81
2023/05/21 00:18:16;;;;;;;7.37;5.13;;;14.70;99.90;;;;;;4911814;28;20206;-82
2023/05/21 00:21:33;;;;;;;8.53;5.30;;;14.60;99.90;;;;;;4911178;29;20278;-88
2023/05/21 00:24:57;;;;;;;7.13;4.43;;;14.60;99.90;;;;;;4910628;29;20659;-82
2023/05/21 00:27:54;;;;;;;7.60;4.70;;;14.60;99.90;;;;;;4911183;29;21042;-84
2023/05/21 00:31:03;;;;;;;7.80;5.07;;;14.50;99.90;;;;;;4912701;28;20206;-83
2023/05/21 00:34:03;;;;;;;7.63;5.33;;;14.50;99.90;;;;;;4908342;29;20211;-83
2023/05/21 00:36:52;;;;;;;8.57;5.10;;;14.50;99.90;;;;;;4898603;29;20319;-82
2023/05/21 00:40:05;;;;;;;8.53;5.47;;;14.40;99.90;;;;;;4910956;29;20230;-82
2023/05/21 00:43:11;;;;;;;11.27;5.20;;;14.40;99.90;;;;;;4955035;28;20587;-81
2023/05/21 00:46:27;;;;;;;6.27;4.53;;;14.30;99.90;;;;;;4971298;28;20193;-81
2023/05/21 00:49:51;;;;;;;7.93;5.10;;;14.30;99.90;;;;;;4968752;28;20229;-85
2023/05/21 00:53:03;;;;;;;9.20;5.00;;;14.20;99.90;;;;;;4916643;29;20215;-80
2023/05/21 00:56:58;;;;;;;9.97;4.73;;;14.20;99.90;;;;;;4923041;29;20224;-81
2023/05/21 01:00:13;;;;;;;6.87;5.20;;;14.10;99.90;;;;;;4934159;28;20207;-80
2023/05/21 01:03:37;;;;;;;7.17;5.00;;;14.10;99.90;;;;;;4933584;28;20271;-81
2023/05/21 01:06:37;;;;;;;6.53;4.50;;;14.10;99.90;;;;;;4934714;28;20266;-83
2023/05/21 01:09:45;;;;;;;8.57;5.50;;;14.00;99.90;;;;;;4933832;28;20356;-81
2023/05/21 01:12:51;;;;;;;6.50;4.87;;;14.00;99.90;;;;;;4932927;29;20234;-81
2023/05/21 01:15:43;;;;;;;6.97;5.07;;;13.90;99.90;;;;;;4934069;29;20217;-80
2023/05/21 01:18:56;;;;;;;7.67;4.90;;;14.00;99.90;;;;;;4932744;29;20240;-81
2023/05/21 01:22:48;;;;;;;;;;;;;;;;;;;;;
2023/05/21 01:25:43;;;;;;;9.83;5.00;;;13.90;99.90;;;;;;4934189;28;20580;-85
2023/05/21 01:28:34;;;;;;;8.47;4.83;;;13.80;99.90;;;;;;4944914;28;20663;-81
2023/05/21 01:31:55;;;;;;;10.17;5.00;;;13.80;99.90;;;;;;5013540;28;20206;-80
2023/05/21 01:35:27;;;;;;;6.63;5.07;;;13.70;99.90;;;;;;5003340;28;20234;-82
2023/05/21 01:38:32;;;;;;;6.37;5.33;;;13.70;99.90;;;;;;5017709;28;20201;-79
2023/05/21 01:42:09;;;;;;;8.10;5.10;;;13.70;99.90;;;;;;5013899;28;20744;-81
2023/05/21 01:45:14;;;;;;;8.77;5.30;;;13.60;99.90;;;;;;5013543;28;20579;-80
2023/05/21 01:48:12;;;;;;;9.03;5.20;;;13.50;99.90;;;;;;5013947;28;20222;-82
2023/05/21 01:51:27;;;;;;;8.53;5.17;;;13.60;99.90;;;;;;5016103;28;20189;-79
2023/05/21 01:54:40;;;;;;;8.80;5.40;;;13.50;99.90;;;;;;4999126;28;20191;-79
2023/05/21 01:57:39;;;;;;;8.27;5.30;;;13.60;99.90;;;;;;5015530;28;20206;-80
2023/05/21 02:01:10;;;;;;;7.57;5.33;;;13.40;99.90;;;;;;5064047;22;20220;-82
2023/05/21 02:04:22;;;;;;;9.00;5.00;;;13.40;99.90;;;;;;5094936;23;20240;-80
2023/05/21 02:07:31;;;;;;;6.83;4.90;;;13.40;99.90;;;;;;5070889;28;20735;-80
2023/05/21 02:10:23;;;;;;;9.33;5.07;;;13.30;99.90;;;;;;5070579;28;20279;-80
2023/05/21 02:13:23;;;;;;;7.50;4.97;;;13.30;99.90;;;;;;5071523;28;20190;-82
2023/05/21 02:16:14;;;;;;;8.30;5.43;;;13.30;99.90;;;;;;5070430;28;20652;-81
2023/05/21 02:19:09;;;;;;;7.50;5.13;;;13.40;99.90;;;;;;5071532;28;20737;-84
2023/05/21 02:22:45;;;;;;;8.23;4.97;;;13.20;99.90;;;;;;5062316;28;20220;-82
2023/05/21 02:26:28;;;;;;;8.87;4.63;;;13.20;99.90;;;;;;5069901;28;20284;-86
2023/05/21 02:30:06;;;;;;;11.20;5.27;;;13.10;99.90;;;;;;5048187;28;20231;-88
2023/05/21 02:33:20;;;;;;;7.90;4.90;;;13.00;99.90;;;;;;5015376;28;20196;-90
2023/05/21 02:41:10;;;;;;;8.70;4.80;;;13.00;99.90;;;;;;5052188;23;20234;-85
2023/05/21 02:44:37;;;;;;;8.33;4.33;;;13.00;99.90;;;;;;5073708;28;20706;-89
2023/05/21 02:48:06;;;;;;;8.70;4.93;;;13.10;99.90;;;;;;4992867;28;20200;-82
2023/05/21 02:51:16;;;;;;;7.33;4.50;;;13.00;99.90;;;;;;4997777;28;20239;-86
2023/05/21 02:54:13;;;;;;;5.63;4.50;;;13.00;99.90;;;;;;4993468;28;20200;-90
2023/05/21 02:57:31;;;;;;;7.80;4.80;;;13.00;99.90;;;;;;4960470;28;20290;-80
2023/05/21 03:00:39;;;;;;;7.57;5.00;;;12.80;99.90;;;;;;4969122;28;20697;-79
2023/05/21 03:03:26;;;;;;;6.40;4.80;;;13.00;99.90;;;;;;4969559;28;20202;-81
2023/05/21 03:06:17;;;;;;;8.43;5.07;;;13.00;99.90;;;;;;4969593;28;20248;-79
2023/05/21 03:09:04;;;;;;;6.97;4.53;;;13.00;99.90;;;;;;4968547;28;20360;-80
2023/05/21 03:11:52;;;;;;;8.03;5.40;;;13.00;99.90;;;;;;4969543;28;20198;-80
2023/05/21 03:14:42;;;;;;;7.67;4.80;;;13.00;99.90;;;;;;4967427;28;20209;-80
2023/05/21 03:17:30;;;;;;;8.43;4.90;;;12.90;99.90;;;;;;4969692;28;20214;-81
2023/05/21 03:20:18;;;;;;;8.40;4.93;;;12.90;99.90;;;;;;4970823;28;20670;-80
2023/05/21 03:23:12;;;;;;;7.77;4.67;;;13.00;99.90;;;;;;4984605;28;20202;-79
2023/05/21 03:26:07;;;;;;;6.67;4.60;;;12.90;99.90;;;;;;5035599;28;20209;-83
2023/05/21 03:29:06;;;;;;;7.60;4.83;;;13.00;99.90;;;;;;5052325;28;20280;-89
2023/05/21 03:31:54;;;;;;;7.90;4.53;;;13.00;99.90;;;;;;5035360;28;20696;-79
2023/05/21 03:34:41;;;;;;;7.87;4.80;;;13.00;99.90;;;;;;5036750;28;20248;-79
2023/05/21 03:37:29;;;;;;;8.07;4.60;;;13.00;99.90;;;;;;5053600;28;20773;-78
2023/05/21 03:40:16;;;;;;;6.90;4.57;;;13.00;99.90;;;;;;5050494;28;20199;-80
2023/05/21 03:43:03;;;;;;;7.37;4.20;;;13.00;99.90;;;;;;5049634;28;20226;-80
2023/05/21 03:45:50;;;;;;;8.73;4.37;;;13.10;99.90;;;;;;5048963;28;20211;-79
2023/05/21 03:48:38;;;;;;;7.90;4.17;;;13.10;99.90;;;;;;5050280;28;20256;-80
2023/05/21 03:51:26;;;;;;;6.87;4.13;;;13.20;99.90;;;;;;5053818;28;20208;-84
2023/05/21 03:54:13;;;;;;;8.97;4.83;;;13.20;99.90;;;;;;5049062;28;20226;-81
2023/05/21 03:57:00;;;;;;;7.10;4.50;;;13.20;99.90;;;;;;5036241;28;20218;-83
2023/05/21 03:59:48;;;;;;;6.13;4.23;;;13.30;99.90;;;;;;5051349;28;20205;-78
2023/05/21 04:02:46;;;;;;;7.83;4.60;;;13.30;99.90;;;;;;5051126;28;20206;-78
2023/05/21 04:06:23;;;;;;;5.57;4.07;;;13.30;99.90;;;;;;5049758;28;20664;-80
2023/05/21 04:09:18;;;;;;;7.10;4.10;;;13.40;99.90;;;;;;5014542;28;20224;-77
2023/05/21 04:12:06;;;;;;;6.70;3.93;;;13.40;99.90;;;;;;5027078;28;20187;-78
2023/05/21 04:14:53;;;;;;;10.10;4.20;;;13.50;99.90;;;;;;5027656;28;20199;-77
2023/05/21 04:17:41;;;;;;;8.03;4.03;;;13.50;99.90;;;;;;5027031;28;20204;-78
2023/05/21 04:20:28;;;;;;;7.00;3.83;;;13.50;99.90;;;;;;5026222;28;20300;-79
2023/05/21 04:23:26;;;;;;;7.07;3.97;;;13.60;99.90;;;;;;5026222;28;20245;-89
2023/05/21 04:26:17;;;;;;;7.67;3.90;;;13.70;99.90;;;;;;5015772;28;20272;-86
2023/05/21 04:29:16;;;;;;;6.47;3.97;;;13.80;99.90;;;;;;5029496;28;20283;-78
2023/05/21 04:32:08;;;;;;;7.67;3.33;;;13.80;99.90;;;;;;5017964;28;20242;-81
2023/05/21 04:35:01;;;;;;;9.37;3.63;;;13.90;99.90;;;;;;5017357;28;20623;-80
2023/05/21 04:37:53;;;;;;;4.80;3.33;;;13.90;99.90;;;;;;5030201;28;20195;-79
2023/05/21 04:40:42;;;;;;;9.53;4.30;;;14.00;99.90;;;;;;5030210;28;20254;-78
2023/05/21 04:43:30;;;;;;;5.30;3.40;;;14.10;99.90;;;;;;5031799;28;20281;-82
2023/05/21 04:46:29;;;;;;;4.83;3.37;;;14.20;99.90;;;;;;5033014;28;20237;-84
2023/05/21 04:49:19;;;;;;;6.23;3.53;;;14.20;99.90;;;;;;5036715;28;20199;-81
2023/05/21 04:52:10;;;;;;;5.60;3.40;;;14.20;99.90;;;;;;5051098;28;20205;-79
2023/05/21 04:55:00;;;;;;;6.63;3.83;;;14.30;99.90;;;;;;5052280;28;20673;-80
2023/05/21 04:57:56;;;;;;;6.23;3.70;;;14.40;99.90;;;;;;5040516;28;20246;-79
2023/05/21 05:00:50;;;;;;;6.43;3.50;;;14.40;99.90;;;;;;5040464;28;20252;-78
2023/05/21 05:03:38;;;;;;;4.27;3.03;;;14.60;99.90;;;;;;5052981;28;20205;-80
2023/05/21 05:06:25;;;;;;;7.50;3.20;;;14.60;99.90;;;;;;5052727;28;20190;-79
2023/05/21 05:09:12;;;;;;;5.17;3.20;;;14.70;99.90;;;;;;5052601;28;20671;-80
2023/05/21 05:12:00;;;;;;;6.20;3.33;;;14.70;99.90;;;;;;5037759;28;20209;-79
2023/05/21 05:14:50;;;;;;;7.53;3.13;;;14.80;99.90;;;;;;5054785;28;20682;-80
2023/05/21 05:17:38;;;;;;;7.67;3.30;;;14.90;99.90;;;;;;5053034;28;20538;-81
2023/05/21 05:20:25;;;;;;;5.17;2.80;;;14.90;99.90;;;;;;5051736;28;20279;-83
2023/05/21 05:23:18;;;;;;;4.03;3.07;;;15.00;99.90;;;;;;5052621;28;20194;-80
2023/05/21 05:26:06;;;;;;;4.37;2.90;;;15.10;99.90;;;;;;5038137;28;20198;-81
2023/05/21 05:29:20;;;;;;;5.97;2.80;;;15.20;99.90;;;;;;5037195;28;20206;-80
2023/05/21 05:32:10;;;;;;;4.43;2.87;;;15.20;99.90;;;;;;4972093;28;20272;-85
2023/05/21 05:34:58;;;;;;;5.50;2.90;;;15.40;99.90;;;;;;4972023;28;20201;-81
2023/05/21 05:37:48;;;;;;;4.63;2.80;;;15.50;99.90;;;;;;4970213;28;20248;-86
2023/05/21 05:40:36;;;;;;;6.07;2.73;;;15.50;99.90;;;;;;4971216;28;20274;-85
2023/05/21 05:43:25;;;;;;;3.63;2.80;;;15.60;99.90;;;;;;4971374;28;20589;-77
2023/05/21 05:46:12;;;;;;;5.80;3.10;;;15.70;99.90;;;;;;4970983;28;20715;-83
2023/05/21 05:48:59;;;;;;;4.47;2.63;;;15.80;99.90;;;;;;4970343;28;20209;-77
2023/05/21 05:51:46;;;;;;;3.90;2.70;;;15.90;99.90;;;;;;4970773;28;20201;-82
2023/05/21 05:54:33;;;;;;;3.83;2.53;;;16.00;99.90;;;;;;4970396;28;20198;-78
2023/05/21 05:57:21;;;;;;;4.87;2.73;;;16.10;99.90;;;;;;4970209;28;20205;-79
2023/05/21 06:00:09;;;;;;;4.37;2.90;;;16.20;99.90;;;;;;4970104;28;20252;-82
2023/05/21 06:02:56;;;;;;;4.20;2.87;;;16.40;99.90;;;;;;4970998;28;20202;-78
2023/05/21 06:05:44;;;;;;;4.87;2.50;;;16.50;99.90;;;;;;4970936;28;20296;-80
2023/05/21 06:08:33;;;;;;;4.37;2.67;;;16.50;99.90;;;;;;4998049;28;20713;-79
2023/05/21 06:11:24;;;;;;;3.30;2.40;;;16.60;99.90;;;;;;5051272;28;20649;-79
2023/05/21 06:14:11;;;;;;;3.73;2.43;;;16.70;99.90;;;;;;5053956;28;20187;-84
2023/05/21 06:16:58;;;;;;;4.47;2.40;;;16.80;99.90;;;;;;5050359;28;20198;-81
2023/05/21 06:19:46;;;;;;;7.27;2.80;;;16.90;99.90;;;;;;5036716;28;20213;-81
2023/05/21 06:22:33;;;;;;;5.37;2.63;;;17.00;99.90;;;;;;5035808;28;20202;-83
2023/05/21 06:25:24;;;;;;;5.47;2.50;;;17.10;99.90;;;;;;5050164;28;20292;-86
2023/05/21 06:28:11;;;;;;;4.90;2.50;;;17.20;99.90;;;;;;5051232;28;20840;-83
2023/05/21 06:31:02;;;;;;;4.30;2.33;;;17.30;99.90;;;;;;5052492;28;20224;-87
2023/05/21 06:33:56;;;;;;;6.40;2.53;;;17.40;99.90;;;;;;5053609;28;20256;-84
2023/05/21 06:36:57;;;;;;;5.23;2.60;;;17.50;99.90;;;;;;5053631;28;20333;-89
2023/05/21 06:46:03;;;;;;;5.60;2.53;;;17.90;99.90;;;;;;5032288;28;20559;-86
2023/05/21 06:49:14;;;;;;;3.17;2.13;;;18.10;99.90;;;;;;5023251;28;20275;-86
2023/05/21 06:52:19;;;;;;;3.13;2.30;;;18.20;99.90;;;;;;4953151;29;20199;-88
2023/05/21 06:55:21;;;;;;;4.37;2.53;;;18.40;99.90;;;;;;4950945;28;20284;-87
2023/05/21 06:58:11;;;;;;;4.63;2.50;;;18.60;99.90;;;;;;4954753;28;20289;-88
2023/05/21 07:02:00;;;;;;;4.93;2.77;;;18.60;99.90;;;;;;4952949;28;20217;-89
2023/05/21 07:04:59;;;;;;;4.63;1.90;;;18.80;99.90;;;;;;4938073;29;20210;-84
2023/05/21 07:07:49;;;;;;;4.03;2.10;;;18.80;99.90;;;;;;4951137;28;20201;-90
2023/05/21 07:11:12;;;;;;;3.60;2.20;;;18.90;99.90;;;;;;4951949;29;20703;-86
2023/05/21 07:14:35;;;;;;;;;;;;;;;;;;;;;
2023/05/21 07:17:54;;;;;;;3.73;2.30;;;19.10;99.90;;;;;;4951415;28;20205;-83
2023/05/21 07:20:41;;;;;;;5.70;2.57;;;19.20;99.90;;;;;;4951588;28;20731;-83
2023/05/21 07:23:28;;;;;;;3.97;2.33;;;19.30;99.90;;;;;;4950949;28;20208;-82
2023/05/21 07:26:16;;;;;;;5.30;2.50;;;19.40;99.90;;;;;;4949961;29;20206;-86
2023/05/21 07:29:03;;;;;;;3.83;2.20;;;19.50;99.90;;;;;;4979453;28;20208;-87
2023/05/21 07:31:50;;;;;;;4.00;2.30;;;19.60;99.90;;;;;;5011007;28;20677;-82
2023/05/21 07:34:37;;;;;;;6.47;2.40;;;19.70;99.90;;;;;;5012592;28;20211;-81
2023/05/21 07:37:26;;;;;;;3.13;2.20;;;19.80;99.90;;;;;;4998707;28;20571;-83
2023/05/21 07:40:14;;;;;;;7.00;2.73;;;19.90;99.90;;;;;;5009985;28;20206;-81
2023/05/21 07:43:02;;;;;;;4.27;2.20;;;20.00;99.90;;;;;;5017128;28;20208;-88
2023/05/21 07:45:50;;;;;;;2.70;2.07;;;20.20;99.90;;;;;;5031719;28;20286;-80
2023/05/21 07:48:48;;;;;;;4.33;2.30;;;20.20;99.90;;;;;;5015980;28;20207;-90
2023/05/21 07:52:01;;;;;;;4.23;2.00;;;20.30;99.90;;;;;;5028556;28;20219;-80
2023/05/21 07:54:55;;;;;;;2.70;2.10;;;20.50;99.90;;;;;;5031025;28;20221;-80
2023/05/21 07:57:44;;;;;;;2.87;2.10;;;20.60;99.90;;;;;;5031450;28;20266;-81
2023/05/21 08:00:48;;;;;;;4.07;2.30;;;20.60;99.90;;;;;;5017992;28;20645;-83
2023/05/21 08:03:36;;;;;;;3.30;2.10;;;20.70;99.90;;;;;;5015681;28;20191;-83
2023/05/21 08:06:23;;;;;;;5.13;2.50;;;20.80;99.90;;;;;;5030004;28;20278;-79
2023/05/21 08:09:11;;;;;;;3.33;2.00;;;20.90;99.90;;;;;;5030636;28;20286;-78
2023/05/21 08:11:58;;;;;;;2.73;2.00;;;21.00;99.90;;;;;;5014868;28;20219;-79
2023/05/21 08:14:45;;;;;;;7.00;2.07;;;21.10;99.90;;;;;;5029967;28;20787;-81
2023/05/21 08:17:32;;;;;;;4.87;2.20;;;21.80;99.90;;;;;;5015966;28;20195;-79
2023/05/21 08:20:21;;;;;;;5.45;2.50;;;22.90;99.90;;;;;;5029990;28;20199;-82
2023/05/21 08:23:08;;;;;;;3.97;2.50;;;23.90;97.10;;;;;;5030027;28;20660;-79
2023/05/21 08:25:55;;;;;;;3.88;2.25;;;24.60;94.20;;;;;;5030069;28;20301;-80
2023/05/21 08:28:43;;;;;;;3.22;2.22;;;25.00;90.40;;;;;;5031436;28;20222;-83
2023/05/21 08:31:32;;;;;;;6.63;2.53;;;25.40;86.30;;;;;;5030329;28;20219;-84
2023/05/21 08:34:19;;;;;;;2.55;1.80;;;25.50;81.50;;;;;;5031369;28;20249;-81
2023/05/21 08:37:09;;;;;;;4.95;2.40;;;25.60;79.30;;;;;;5029423;28;20203;-80
2023/05/21 08:39:56;;;;;;;12.30;2.20;;;26.10;77.30;;;;;;5030806;28;20191;-81
2023/05/21 08:42:45;;;;;;;2.92;2.05;;;26.30;78.70;;;;;;5031236;28;20210;-81
2023/05/21 08:45:36;;;;;;;3.17;2.00;;;26.10;75.70;;;;;;5031167;28;20254;-82
2023/05/21 08:48:25;;;;;;;6.10;2.67;;;26.50;77.40;;;;;;5030069;28;20246;-81
2023/05/21 08:51:13;;;;;;;3.53;2.20;;;26.80;73.20;;;;;;5029207;28;20308;-81
2023/05/21 08:54:01;;;;;;;4.28;2.22;;;27.10;73.70;;;;;;5029511;28;20196;-82
2023/05/21 08:56:49;;;;;;;3.47;2.25;;;27.30;73.50;;;;;;5030837;28;20227;-82
2023/05/21 08:59:38;;;;;;;4.40;2.20;;;27.30;73.80;;;;;;5029762;28;20198;-80
2023/05/21 09:02:31;;;;;;;2.90;2.17;;;27.30;69.30;;;;;;5029502;28;20237;-81
2023/05/21 09:05:19;;;;;;;4.40;2.00;;;27.40;67.60;;;;;;5030019;28;21007;-84
2023/05/21 09:08:16;;;;;;;4.25;2.30;;;27.30;64.30;;;;;;5030310;28;20184;-83
2023/05/21 09:11:04;;;;;;;4.13;2.10;;;27.10;67.60;;;;;;5029558;28;20300;-80
2023/05/21 09:13:52;;;;;;;3.35;2.08;;;27.30;64.60;;;;;;5023843;28;20306;-81
2023/05/21 09:16:40;;;;;;;3.20;2.17;;;27.30;66.90;;;;;;5033028;28;20200;-80
2023/05/21 09:19:30;;;;;;;2.95;2.10;;;27.10;65.30;;;;;;5032544;28;20265;-80
2023/05/21 09:22:22;;;;;;;3.10;2.10;;;27.10;64.50;;;;;;5032621;28;20200;-80
2023/05/21 09:25:11;;;;;;;3.65;2.25;;;26.90;65.00;;;;;;5033452;28;20196;-79
2023/05/21 09:27:58;;;;;;;7.03;2.30;;;26.80;65.30;;;;;;5033070;28;20200;-81
2023/05/21 09:30:52;;;;;;;3.72;2.38;;;26.80;65.70;;;;;;5032574;28;20219;-79
2023/05/21 09:33:46;;;;;;;8.90;2.17;;;26.90;65.90;;;;;;5032190;28;20715;-82
2023/05/21 09:36:37;;;;;;;3.97;2.05;;;27.00;66.40;;;;;;5032727;28;20233;-81
2023/05/21 09:39:28;;;;;;;5.35;2.13;;;27.20;65.00;;;;;;5035233;28;20286;-84
2023/05/21 09:42:20;;;;;;;3.35;2.10;;;27.10;62.90;;;;;;5044030;28;20560;-80
2023/05/21 09:45:11;;;;;;;3.70;2.13;;;27.40;64.50;;;;;;5032305;28;20362;-80
2023/05/21 09:47:58;;;;;;;3.90;2.03;;;27.50;65.40;;;;;;5034878;28;20191;-80
2023/05/21 09:50:45;;;;;;;2.42;1.90;;;27.90;65.00;;;;;;5033500;28;20219;-84
2023/05/21 09:53:32;;;;;;;4.35;2.00;;;27.70;62.20;;;;;;5033131;28;20309;-80
2023/05/21 09:56:24;;;;;;;5.25;2.50;;;27.70;61.70;;;;;;5033262;28;20679;-81
2023/05/21 09:59:11;;;;;;;2.60;2.00;;;27.90;60.50;;;;;;5033211;28;20196;-81
2023/05/21 10:01:59;;;;;;;5.72;2.40;;;27.80;61.50;;;;;;5032094;28;20270;-82
2023/05/21 10:04:50;;;;;;;2.90;2.17;;;27.90;59.60;;;;;;5018114;28;20202;-81
2023/05/21 10:07:40;;;;;;;4.05;2.10;;;27.70;59.90;;;;;;5030952;28;20258;-81
2023/05/21 10:10:29;;;;;;;3.65;2.28;;;27.80;60.10;;;;;;5034105;28;20196;-84
2023/05/21 10:13:20;;;;;;;3.78;2.10;;;28.00;61.70;;;;;;5032680;28;20205;-82
2023/05/21 10:16:08;;;;;;;3.90;1.92;;;28.20;61.10;;;;;;5032777;28;20200;-75
2023/05/21 10:18:56;;;;;;;3.65;1.80;;;28.30;60.80;;;;;;5030797;28;20200;-76
2023/05/21 10:21:45;;;;;;;3.25;2.03;;;28.60;58.80;;;;;;5031663;28;20199;-80
2023/05/21 10:24:33;;;;;;;2.85;1.83;;;28.60;59.80;;;;;;5029897;28;20199;-82
2023/05/21 10:27:22;;;;;;;2.20;1.85;;;28.90;58.50;;;;;;5031457;28;20196;-76
2023/05/21 10:30:10;;;;;;;3.55;2.10;;;28.80;58.90;;;;;;5030782;28;20295;-80
2023/05/21 10:33:00;;;;;;;4.78;2.00;;;28.70;57.80;;;;;;5030971;28;20207;-78
2023/05/21 10:35:50;;;;;;;3.97;2.03;;;29.20;60.20;;;;;;5031810;28;20199;-83
2023/05/21 10:38:41;;;;;;;2.58;1.85;;;29.30;55.80;;;;;;5031895;28;20676;-79
2023/05/21 10:41:37;;;;;;;3.58;2.03;;;29.30;56.20;;;;;;5019218;28;20198;-91
2023/05/21 10:44:29;;;;;;;3.90;2.10;;;29.40;55.30;;;;;;5035474;28;20374;-85
2023/05/21 10:47:28;;;;;;;2.25;1.90;;;29.70;54.70;;;;;;5017869;28;20530;-81
2023/05/21 10:50:44;;;;;;;3.95;1.90;;;29.80;55.10;;;;;;5030673;28;20195;-79
2023/05/21 10:53:59;;;;;;;3.67;2.10;;;30.30;57.50;;;;;;5033736;28;20298;-83
2023/05/21 10:57:19;;;;;;;3.08;1.90;;;30.50;55.30;;;;;;5031716;28;20698;-85
2023/05/21 11:00:08;;;;;;;5.82;2.40;;;30.50;54.50;;;;;;5031189;28;20318;-80
2023/05/21 11:02:57;;;;;;;3.88;2.22;;;30.20;52.90;;;;;;5035479;28;20573;-86
2023/05/21 11:06:07;;;;;;;2.70;1.73;;;29.80;54.10;;;;;;5031795;28;20207;-83
2023/05/21 11:08:55;;;;;;;2.83;2.10;;;29.70;53.80;;;;;;5032037;28;20198;-84
2023/05/21 11:11:56;;;;;;;4.28;1.95;;;29.90;55.30;;;;;;5029912;28;20215;-81
2023/05/21 11:14:56;;;;;;;2.90;2.15;;;30.20;55.40;;;;;;5031613;28;20284;-83
2023/05/21 11:17:46;;;;;;;3.25;2.17;;;30.20;53.70;;;;;;5030260;28;20211;-79
2023/05/21 11:20:34;;;;;;;3.10;2.00;;;30.30;54.40;;;;;;5032305;28;20207;-79
2023/05/21 11:23:22;;;;;;;2.60;1.90;;;30.60;54.80;;;;;;5031899;28;20439;-83
2023/05/21 11:26:09;;;;;;;2.20;2.00;;;30.60;54.90;;;;;;5030884;28;20582;-80
2023/05/21 11:29:10;;;;;;;4.13;2.13;;;30.60;52.70;;;;;;5031437;28;20278;-81
2023/05/21 11:32:01;;;;;;;2.17;1.98;;;30.50;52.70;;;;;;5031489;28;20223;-81
2023/05/21 11:34:49;;;;;;;4.40;2.20;;;30.30;53.40;;;;;;5032590;28;20196;-85
2023/05/21 11:37:39;;;;;;;3.38;2.10;;;30.70;52.60;;;;;;5038734;28;20205;-86
2023/05/21 11:40:29;;;;;;;4.00;2.10;;;30.40;53.60;;;;;;5032779;28;20626;-88
2023/05/21 11:43:19;;;;;;;3.80;2.13;;;30.50;54.00;;;;;;5030930;28;20203;-81
2023/05/21 11:46:10;;;;;;;3.67;2.15;;;30.70;52.50;;;;;;5031599;28;20204;-81
2023/05/21 11:49:01;;;;;;;2.28;1.83;;;30.70;53.00;;;;;;5030048;28;20237;-85
2023/05/21 11:51:49;;;;;;;3.55;2.13;;;30.90;50.60;;;;;;5031259;28;20312;-85
2023/05/21 11:54:49;;;;;;;3.42;2.30;;;31.00;50.70;;;;;;5030370;28;20200;-79
2023/05/21 11:57:40;;;;;;;4.18;2.03;;;31.00;52.60;;;;;;5030186;28;20257;-84
2023/05/21 12:00:28;;;;;;;3.58;2.03;;;31.00;51.60;;;;;;5031354;28;20675;-83
2023/05/21 12:03:15;;;;;;;4.13;2.20;;;31.10;50.80;;;;;;5029918;28;20287;-80
2023/05/21 12:06:07;;;;;;;3.28;2.20;;;31.20;52.20;;;;;;5032364;28;20218;-84
2023/05/21 12:08:57;;;;;;;3.17;2.00;;;31.10;51.00;;;;;;5040175;28;20257;-83
2023/05/21 12:11:45;;;;;;;2.70;1.88;;;31.20;50.10;;;;;;5030411;28;20304;-81
2023/05/21 12:14:32;;;;;;;3.13;2.10;;;31.30;49.70;;;;;;5029526;28;20637;-82
2023/05/21 12:17:24;;;;;;;3.25;2.05;;;31.50;49.30;;;;;;5029849;28;20199;-79
2023/05/21 12:20:15;;;;;;;3.97;2.10;;;31.70;48.60;;;;;;5031872;28;20229;-80
2023/05/21 12:23:03;;;;;;;2.58;1.55;;;31.80;49.90;;;;;;5016412;28;20552;-83
2023/05/21 12:25:52;;;;;;;4.40;1.92;;;32.00;47.80;;;;;;5029494;28;20559;-82
2023/05/21 12:28:39;;;;;;;3.08;2.00;;;31.70;45.90;;;;;;5031325;28;20533;-84
2023/05/21 12:31:29;;;;;;;2.90;1.90;;;31.70;48.00;;;;;;5029514;28;20265;-82
2023/05/21 12:34:41;;;;;;;2.42;1.83;;;31.50;47.70;;;;;;5029855;28;20195;-86
2023/05/21 12:37:34;;;;;;;4.68;2.20;;;31.80;48.60;;;;;;5028732;28;20191;-85
2023/05/21 12:40:33;;;;;;;3.75;1.90;;;31.90;46.50;;;;;;5028606;28;20202;-84
2023/05/21 12:43:21;;;;;;;2.33;1.80;;;32.20;48.30;;;;;;5030177;28;20191;-85
2023/05/21 12:46:16;;;;;;;2.95;1.85;;;32.20;47.60;;;;;;5031072;28;20203;-85
2023/05/21 12:49:03;;;;;;;3.03;2.00;;;32.10;47.10;;;;;;5033438;28;20631;-84
2023/05/21 12:51:50;;;;;;;3.40;2.10;;;31.70;47.00;;;;;;5032697;28;20598;-83
2023/05/21 12:54:40;;;;;;;2.97;2.00;;;31.40;47.60;;;;;;5032927;28;20206;-84
2023/05/21 12:57:34;;;;;;;4.30;1.95;;;31.50;47.30;;;;;;5034353;28;20223;-80
2023/05/21 13:00:22;;;;;;;4.03;1.80;;;31.70;46.00;;;;;;5019866;28;20669;-83
2023/05/21 13:03:10;;;;;;;4.55;1.98;;;32.00;48.30;;;;;;5033900;28;20277;-81
2023/05/21 13:05:59;;;;;;;3.38;1.75;;;32.00;47.50;;;;;;5033099;28;20280;-77
2023/05/21 13:08:47;;;;;;;2.88;1.70;;;32.20;46.70;;;;;;5035135;28;20238;-80
2023/05/21 13:11:34;;;;;;;2.95;1.65;;;32.20;45.80;;;;;;5034166;28;20215;-81
2023/05/21 13:14:21;;;;;;;2.17;1.95;;;32.00;45.90;;;;;;5042249;28;20516;-86
2023/05/21 13:17:09;;;;;;;4.03;1.98;;;31.90;47.50;;;;;;5037268;28;20195;-83
2023/05/21 13:20:20;;;;;;;2.80;2.00;;;31.90;47.20;;;;;;5035839;28;20196;-83
2023/05/21 13:23:08;;;;;;;3.42;2.00;;;31.90;47.20;;;;;;5034616;28;20338;-83
2023/05/21 13:25:57;;;;;;;3.10;1.92;;;31.90;47.20;;;;;;5038180;28;20199;-84
2023/05/21 13:28:45;;;;;;;3.17;1.90;;;32.00;47.90;;;;;;5035319;28;20693;-87
2023/05/21 13:31:32;;;;;;;3.92;1.83;;;31.70;47.70;;;;;;5033657;28;20286;-85
2023/05/21 13:34:20;;;;;;;2.90;1.85;;;31.80;46.80;;;;;;5034134;28;20289;-86
2023/05/21 13:37:07;;;;;;;5.82;2.00;;;31.90;47.00;;;;;;5034899;28;20703;-85
2023/05/21 13:39:54;;;;;;;3.10;1.83;;;32.00;46.40;;;;;;5033262;28;20199;-80
2023/05/21 13:42:42;;;;;;;4.05;1.92;;;32.20;48.00;;;;;;5038270;28;20196;-86
2023/05/21 13:45:30;;;;;;;2.67;1.80;;;32.10;48.10;;;;;;5037170;28;20598;-85
2023/05/21 13:48:17;;;;;;;3.47;2.25;;;32.00;47.10;;;;;;5032411;28;20326;-81
2023/05/21 13:51:05;;;;;;;3.00;2.00;;;32.00;47.20;;;;;;5032729;28;20199;-84
2023/05/21 13:53:52;;;;;;;2.60;1.73;;;32.10;46.70;;;;;;5033372;28;20285;-78
2023/05/21 13:56:42;;;;;;;4.32;1.80;;;32.20;47.40;;;;;;5035029;28;20273;-87
2023/05/21 13:59:33;;;;;;;2.10;1.70;;;32.20;47.40;;;;;;5022790;28;20199;-85
2023/05/21 14:02:20;;;;;;;2.00;1.80;;;31.90;46.60;;;;;;5034814;28;20286;-86
2023/05/21 14:05:11;;;;;;;2.80;1.65;;;32.00;48.40;;;;;;5029663;28;20202;-87
2023/05/21 14:07:58;;;;;;;4.10;2.13;;;32.20;46.50;;;;;;5033058;28;20294;-83
2023/05/21 14:10:46;;;;;;;4.05;2.20;;;31.90;46.70;;;;;;5032962;28;20590;-85
2023/05/21 14:13:34;;;;;;;4.00;1.90;;;31.80;47.70;;;;;;5032528;28;20312;-82
2023/05/21 14:16:23;;;;;;;1.88;1.58;;;32.00;45.90;;;;;;5033077;28;20195;-79
2023/05/21 14:19:11;;;;;;;5.90;2.00;;;32.00;46.20;;;;;;5032104;28;20208;-81
2023/05/21 14:21:58;;;;;;;3.97;1.98;;;31.90;46.40;;;;;;5032100;28;20274;-82
2023/05/21 14:24:46;;;;;;;2.63;1.80;;;31.80;45.10;;;;;;5035454;28;20195;-81
2023/05/21 14:27:33;;;;;;;3.00;1.85;;;31.60;45.70;;;;;;5032122;28;20203;-82
2023/05/21 14:30:20;;;;;;;3.30;1.75;;;31.70;46.00;;;;;;5030732;28;20209;-79
2023/05/21 14:33:08;;;;;;;3.70;1.65;;;31.80;46.10;;;;;;5032389;28;20728;-79
2023/05/21 14:35:55;;;;;;;3.75;1.92;;;31.80;44.90;;;;;;5031450;28;20187;-79
2023/05/21 14:38:42;;;;;;;4.82;1.70;;;31.50;44.50;;;;;;5032335;28;20218;-89
2023/05/21 14:41:29;;;;;;;2.60;1.60;;;31.70;44.90;;;;;;5033227;28;20282;-84
2023/05/21 14:44:17;;;;;;;4.00;1.83;;;31.40;44.80;;;;;;5018134;28;20231;-82
2023/05/21 14:47:04;;;;;;;3.15;1.90;;;31.50;45.40;;;;;;5034166;28;20216;-81
2023/05/21 14:49:51;;;;;;;4.25;1.70;;;31.50;45.60;;;;;;5032149;28;20196;-82
2023/05/21 14:52:41;;;;;;;3.88;1.70;;;31.40;45.50;;;;;;5032134;28;20267;-86
2023/05/21 14:55:29;;;;;;;2.47;1.67;;;31.40;45.80;;;;;;5031719;28;20208;-87
2023/05/21 14:58:16;;;;;;;4.00;2.22;;;30.90;46.50;;;;;;5038048;28;20203;-88
2023/05/21 15:01:04;;;;;;;3.20;1.70;;;31.00;46.30;;;;;;5033565;28;20637;-84
2023/05/21 15:03:51;;;;;;;2.42;1.80;;;31.00;46.90;;;;;;5025257;28;20688;-85
2023/05/21 15:06:39;;;;;;;3.75;1.77;;;31.10;47.90;;;;;;5031089;28;20203;-82
2023/05/21 15:09:27;;;;;;;8.38;1.75;;;31.20;46.40;;;;;;5031057;28;20211;-85
2023/05/21 15:12:14;;;;;;;3.10;1.90;;;31.50;46.90;;;;;;5022516;28;20259;-81
2023/05/21 15:15:02;;;;;;;2.83;1.75;;;31.50;46.30;;;;;;5036013;28;20246;-82
2023/05/21 15:17:49;;;;;;;2.20;1.83;;;31.20;45.80;;;;;;5032313;28;20285;-78
2023/05/21 15:20:37;;;;;;;2.30;1.70;;;31.00;46.80;;;;;;5021242;28;20195;-81
2023/05/21 15:23:24;;;;;;;4.38;1.70;;;30.90;45.50;;;;;;5032205;28;20207;-83
2023/05/21 15:26:12;;;;;;;3.72;2.22;;;31.00;46.20;;;;;;5032151;28;20644;-81